createdAt,value
2023-04-21T00:00:50.641Z,100151.27
2023-04-21T00:03:41.934Z,100149.56
2023-04-21T00:06:23.899Z,100147.11
2023-04-21T00:09:14.594Z,100143.63
2023-04-21T00:12:05.484Z,100140.66
2023-04-21T00:14:56.110Z,100141.88
2023-04-21T00:17:47.153Z,100147.48
2023-04-21T00:20:39.322Z,100142.77
2023-04-21T00:23:30.012Z,100142.65
2023-04-21T00:26:11.857Z,100140.10
2023-04-21T00:29:02.716Z,100137.46
2023-04-21T00:31:53.539Z,100133.92
2023-04-21T00:34:44.287Z,100131.23
2023-04-21T00:37:35.031Z,100135.79
2023-04-21T00:40:25.657Z,100135.52
2023-04-21T00:43:16.419Z,100135.16
2023-04-21T00:46:07.342Z,100135.52
2023-04-21T00:48:58.264Z,100136.60
2023-04-21T00:51:40.720Z,100134.01
2023-04-21T00:54:31.929Z,100134.23
2023-04-21T00:57:14.416Z,100131.14
2023-04-21T01:00:07.856Z,100133.11
2023-04-21T01:02:59.075Z,100129.81
2023-04-21T01:05:49.819Z,100131.70
2023-04-21T01:08:41.631Z,100137.42
2023-04-21T01:11:32.455Z,100134.69
2023-04-21T01:14:23.065Z,100136.73
2023-04-21T01:17:13.762Z,100138.11
2023-04-21T01:20:07.030Z,100134.76
2023-04-21T01:22:57.632Z,100133.85
2023-04-21T01:25:42.912Z,100139.38
2023-04-21T01:28:33.606Z,100136.15
2023-04-21T01:31:24.504Z,100134.50
2023-04-21T01:34:15.295Z,100134.27
2023-04-21T01:37:08.353Z,100136.48
2023-04-21T01:40:01.026Z,100135.64
2023-04-21T01:42:51.669Z,100130.48
2023-04-21T01:45:37.789Z,100125.67
2023-04-21T01:48:18.595Z,100123.49
2023-04-21T01:51:02.439Z,100129.27
2023-04-21T01:53:53.064Z,100133.48
2023-04-21T01:56:43.888Z,100126.36
2023-04-21T01:59:34.650Z,100127.59
2023-04-21T02:02:18.177Z,100121.55
2023-04-21T02:05:09.992Z,100123.00
2023-04-21T02:08:00.646Z,100131.44
2023-04-21T02:10:51.396Z,100130.99
2023-04-21T02:13:42.040Z,100128.38
2023-04-21T02:16:32.706Z,100127.08
2023-04-21T02:19:22.341Z,100125.46
2023-04-21T02:22:13.041Z,100127.11
2023-04-21T02:25:03.669Z,100128.55
2023-04-21T02:27:54.704Z,100128.80
2023-04-21T02:30:45.315Z,100132.39
2023-04-21T02:33:28.970Z,100128.31
2023-04-21T02:36:19.712Z,100133.15
2023-04-21T02:39:10.353Z,100130.70
2023-04-21T02:42:02.037Z,100132.58
2023-04-21T02:44:52.696Z,100136.40
2023-04-21T02:47:26.631Z,100134.77
2023-04-21T02:50:14.356Z,100138.59
2023-04-21T02:53:04.990Z,100140.48
2023-04-21T02:55:56.231Z,100143.81
2023-04-21T02:58:46.953Z,100143.86
2023-04-21T03:01:37.539Z,100142.99
2023-04-21T03:04:28.387Z,100138.39
2023-04-21T03:07:19.191Z,100139.58
2023-04-21T03:10:10.514Z,100138.23
2023-04-21T03:13:01.218Z,100137.86
2023-04-21T03:15:41.616Z,100133.67
2023-04-21T03:18:35.345Z,100128.48
2023-04-21T03:21:06.277Z,100129.33
2023-04-21T03:23:56.833Z,100128.81
2023-04-21T03:26:47.458Z,100129.30
2023-04-21T03:29:38.098Z,100129.39
2023-04-21T03:32:28.734Z,100128.63
2023-04-21T03:35:18.513Z,100130.10
2023-04-21T03:38:03.852Z,100129.48
2023-04-21T03:40:55.018Z,100127.61
2023-04-21T03:43:45.736Z,100124.71
2023-04-21T03:46:23.222Z,100130.68
2023-04-21T03:49:13.870Z,100135.85
2023-04-21T03:52:03.701Z,100134.23
2023-04-21T03:54:54.418Z,100135.38
2023-04-21T03:57:28.176Z,100138.30
2023-04-21T04:00:12.790Z,100136.34
2023-04-21T04:02:43.949Z,100133.97
2023-04-21T04:05:33.294Z,100129.89
2023-04-21T04:08:24.068Z,100127.87
2023-04-21T04:11:14.815Z,100122.23
2023-04-21T04:13:50.752Z,100125.98
2023-04-21T04:16:42.129Z,100132.83
2023-04-21T04:19:23.105Z,100134.33
2023-04-21T04:22:14.522Z,100132.99
2023-04-21T04:25:05.419Z,100138.12
2023-04-21T04:27:57.318Z,100135.55
2023-04-21T04:30:48.891Z,100142.08
2023-04-21T04:33:42.256Z,100139.48
2023-04-21T04:36:22.892Z,100144.71
2023-04-21T04:39:13.964Z,100137.95
2023-04-21T04:41:55.471Z,100133.14
2023-04-21T04:44:47.000Z,100132.34
2023-04-21T04:47:37.728Z,100130.59
2023-04-21T04:50:28.432Z,100135.52
2023-04-21T04:53:19.147Z,100130.63
2023-04-21T04:56:09.969Z,100130.00
2023-04-21T04:59:00.624Z,100132.70
2023-04-21T05:01:51.567Z,100125.50
2023-04-21T05:04:43.054Z,100131.21
2023-04-21T05:07:34.261Z,100133.19
2023-04-21T05:10:17.515Z,100140.02
2023-04-21T05:12:59.232Z,100150.48
2023-04-21T05:15:50.034Z,100151.30
2023-04-21T05:18:40.636Z,100149.30
2023-04-21T05:21:28.813Z,100148.84
2023-04-21T05:24:08.897Z,100150.42
2023-04-21T05:27:00.600Z,100154.72
2023-04-21T05:29:47.358Z,100158.14
2023-04-21T05:32:38.927Z,100153.52
2023-04-21T05:35:28.587Z,100150.35
2023-04-21T05:38:50.260Z,100152.05
2023-04-21T05:41:41.768Z,100155.11
2023-04-21T05:44:32.845Z,100157.10
2023-04-21T05:47:23.648Z,100157.86
2023-04-21T05:50:14.571Z,100147.07
2023-04-21T05:52:47.824Z,100146.08
2023-04-21T05:55:38.987Z,100148.37
2023-04-21T05:58:28.776Z,100155.35
2023-04-21T06:01:09.910Z,100154.00
2023-04-21T06:04:01.231Z,100156.27
2023-04-21T06:06:50.702Z,100159.13
2023-04-21T06:09:41.779Z,100159.40
2023-04-21T06:12:26.331Z,100167.44
2023-04-21T06:15:26.128Z,100168.59
2023-04-21T06:18:07.910Z,100168.68
2023-04-21T06:20:43.545Z,100169.82
2023-04-21T06:23:14.220Z,100171.84
2023-04-21T06:26:04.797Z,100173.42
2023-04-21T06:28:46.677Z,100184.39
2023-04-21T06:31:37.550Z,100186.37
2023-04-21T06:34:28.397Z,100185.32
2023-04-21T06:37:02.328Z,100184.81
2023-04-21T06:39:53.469Z,100183.63
2023-04-21T06:42:34.202Z,100180.70
2023-04-21T06:45:11.676Z,100175.45
2023-04-21T06:47:52.370Z,100168.98
2023-04-21T06:50:26.078Z,100166.93
2023-04-21T06:52:59.941Z,100166.42
2023-04-21T06:55:52.335Z,100170.73
2023-04-21T06:58:26.749Z,100174.23
2023-04-21T07:00:56.032Z,100174.89
2023-04-21T07:03:37.334Z,100176.88
2023-04-21T07:06:29.207Z,100174.98
2023-04-21T07:09:11.009Z,100174.83
2023-04-21T07:11:46.833Z,100165.36
2023-04-21T07:14:18.235Z,100166.02
2023-04-21T07:16:50.025Z,100170.21
2023-04-21T07:19:26.347Z,100166.09
2023-04-21T07:22:01.847Z,100157.98
2023-04-21T07:24:52.021Z,100157.88
2023-04-21T07:27:43.191Z,100150.60
2023-04-21T07:30:22.962Z,100148.66
2023-04-21T07:33:04.012Z,100149.94
2023-04-21T07:35:45.128Z,100147.84
2023-04-21T07:38:25.070Z,100151.55
2023-04-21T07:41:06.344Z,100153.56
2023-04-21T07:43:57.532Z,100153.97
2023-04-21T07:46:38.513Z,100155.05
2023-04-21T07:49:09.493Z,100155.73
2023-04-21T07:51:40.540Z,100156.23
2023-04-21T07:54:11.123Z,100154.77
2023-04-21T07:56:43.977Z,100154.83
2023-04-21T07:59:17.332Z,100153.25
2023-04-21T08:01:48.197Z,100155.98
2023-04-21T08:04:19.592Z,100154.83
2023-04-21T08:06:53.817Z,100155.90
2023-04-21T08:09:23.570Z,100155.17
2023-04-21T08:11:57.950Z,100146.98
2023-04-21T08:14:32.408Z,100137.35
2023-04-21T08:17:03.234Z,100135.42
2023-04-21T08:19:34.018Z,100135.72
2023-04-21T08:22:05.087Z,100131.07
2023-04-21T08:24:38.776Z,100130.39
2023-04-21T08:27:20.614Z,100126.41
2023-04-21T08:29:52.427Z,100129.05
2023-04-21T08:32:26.551Z,100130.98
2023-04-21T08:34:58.173Z,100121.61
2023-04-21T08:37:47.502Z,100115.02
2023-04-21T08:40:18.452Z,100116.79
2023-04-21T08:43:09.900Z,100119.91
2023-04-21T08:45:44.633Z,100115.00
2023-04-21T08:48:27.307Z,100111.81
2023-04-21T08:50:58.116Z,100110.45
2023-04-21T08:53:28.999Z,100104.90
2023-04-21T08:56:10.153Z,100108.51
2023-04-21T08:58:41.786Z,100108.98
2023-04-21T09:01:33.298Z,100106.62
2023-04-21T09:04:20.651Z,100105.94
2023-04-21T09:06:51.669Z,100106.59
2023-04-21T09:09:33.710Z,100094.95
2023-04-21T09:12:04.454Z,100088.39
2023-04-21T09:14:38.216Z,100090.30
2023-04-21T09:17:09.611Z,100095.75
2023-04-21T09:19:40.520Z,100090.85
2023-04-21T09:22:11.262Z,100083.80
2023-04-21T09:24:47.935Z,100082.67
2023-04-21T09:27:19.574Z,100087.34
2023-04-21T09:29:50.830Z,100084.92
2023-04-21T09:32:22.514Z,100076.70
2023-04-21T09:34:53.352Z,100076.72
2023-04-21T09:37:25.111Z,100069.81
2023-04-21T09:40:04.145Z,100065.13
2023-04-21T09:42:39.629Z,100064.55
2023-04-21T09:45:29.105Z,100064.22
2023-04-21T09:48:08.889Z,100062.95
2023-04-21T09:51:20.871Z,100056.27
2023-04-21T09:53:29.665Z,100049.50
2023-04-21T09:56:02.423Z,100044.16
2023-04-21T09:58:41.788Z,100046.20
2023-04-21T10:01:13.172Z,100042.98
2023-04-21T10:03:45.767Z,100038.50
2023-04-21T10:06:16.924Z,100032.09
2023-04-21T10:08:48.407Z,100023.68
2023-04-21T10:11:19.730Z,100016.23
2023-04-21T10:13:50.744Z,100017.95
2023-04-21T10:16:23.299Z,100013.95
2023-04-21T10:18:53.980Z,100016.33
2023-04-21T10:21:25.370Z,100013.39
2023-04-21T10:23:59.262Z,100011.73
2023-04-21T10:26:36.029Z,100013.41
2023-04-21T10:29:09.455Z,100014.65
2023-04-21T10:31:52.157Z,100006.49
2023-04-21T10:34:30.306Z,100004.56
2023-04-21T10:37:20.956Z,99997.36
2023-04-21T10:39:58.141Z,99998.83
2023-04-21T10:42:34.729Z,99992.60
2023-04-21T10:45:10.968Z,99990.08
2023-04-21T10:47:46.228Z,99983.90
2023-04-21T10:50:26.557Z,99977.57
2023-04-21T10:53:00.230Z,99975.56
2023-04-21T10:55:31.924Z,99975.83
2023-04-21T10:58:04.465Z,99974.58
2023-04-21T11:00:37.751Z,99968.58
2023-04-21T11:03:09.423Z,99964.17
2023-04-21T11:05:42.164Z,99963.98
2023-04-21T11:08:16.609Z,99957.44
2023-04-21T11:10:53.374Z,99955.89
2023-04-21T11:13:29.290Z,99956.40
2023-04-21T11:16:01.944Z,99947.48
2023-04-21T11:18:38.334Z,99949.75
2023-04-21T11:21:18.007Z,99945.71
2023-04-21T11:23:53.776Z,99938.64
2023-04-21T11:26:35.009Z,99927.25
2023-04-21T11:29:06.667Z,99919.04
2023-04-21T11:31:38.544Z,99913.20
2023-04-21T11:34:09.717Z,99906.81
2023-04-21T11:36:40.142Z,99903.31
2023-04-21T11:39:12.834Z,99894.20
2023-04-21T11:41:44.865Z,99892.42
2023-04-21T11:44:31.145Z,99892.30
2023-04-21T11:47:01.694Z,99893.88
2023-04-21T11:49:32.388Z,99885.06
2023-04-21T11:52:02.908Z,99887.27
2023-04-21T11:54:33.693Z,99895.30
2023-04-21T11:57:04.242Z,99887.24
2023-04-21T11:59:34.800Z,99885.25
2023-04-21T12:02:05.255Z,99880.97
2023-04-21T12:04:36.343Z,99883.37
2023-04-21T12:07:06.840Z,99876.70
2023-04-21T12:09:38.821Z,99875.86
2023-04-21T12:12:11.018Z,99875.72
2023-04-21T12:14:43.671Z,99877.48
2023-04-21T12:17:14.287Z,99874.25
2023-04-21T12:19:45.966Z,99870.38
2023-04-21T12:22:18.530Z,99874.19
2023-04-21T12:24:49.085Z,99877.77
2023-04-21T12:27:20.638Z,99885.36
2023-04-21T12:29:51.237Z,99880.20
2023-04-21T12:32:22.523Z,99885.00
2023-04-21T12:34:53.440Z,99879.75
2023-04-21T12:37:24.236Z,99876.23
2023-04-21T12:39:53.286Z,99875.48
2023-04-21T12:42:23.904Z,99876.58
2023-04-21T12:44:54.586Z,99883.83
2023-04-21T12:47:25.074Z,99881.48
2023-04-21T12:49:55.571Z,99879.94
2023-04-21T12:52:26.212Z,99875.92
2023-04-21T12:54:56.777Z,99879.14
2023-04-21T12:57:27.331Z,99875.91
2023-04-21T12:59:57.782Z,99870.80
2023-04-21T13:02:28.458Z,99870.71
2023-04-21T13:04:57.643Z,99863.95
2023-04-21T13:07:31.482Z,99860.48
2023-04-21T13:10:02.780Z,99862.11
2023-04-21T13:12:33.185Z,99858.33
2023-04-21T13:15:03.941Z,99858.08
2023-04-21T13:17:32.866Z,99855.69
2023-04-21T13:20:04.810Z,99856.40
2023-04-21T13:22:35.733Z,99858.02
2023-04-21T13:25:07.003Z,99855.97
2023-04-21T13:27:39.931Z,99853.20
2023-04-21T13:30:14.636Z,99854.45
2023-04-21T13:32:45.644Z,99853.83
2023-04-21T13:35:16.372Z,99847.58
2023-04-21T13:37:47.551Z,99841.14
2023-04-21T13:40:18.144Z,99840.20
2023-04-21T13:42:48.777Z,99836.46
2023-04-21T13:45:19.316Z,99832.64
2023-04-21T13:47:49.870Z,99835.36
2023-04-21T13:50:21.456Z,99828.02
2023-04-21T13:52:52.670Z,99826.61
2023-04-21T13:55:23.777Z,99822.80
2023-04-21T13:57:57.960Z,99813.50
2023-04-21T14:00:28.992Z,99811.86
2023-04-21T14:02:59.632Z,99802.41
2023-04-21T14:05:31.193Z,99800.95
2023-04-21T14:08:02.077Z,99796.23
2023-04-21T14:10:32.690Z,99802.58
2023-04-21T14:13:03.076Z,99795.25
2023-04-21T14:15:33.684Z,99788.85
2023-04-21T14:18:04.687Z,99782.96
2023-04-21T14:20:35.193Z,99777.77
2023-04-21T14:23:05.742Z,99774.97
2023-04-21T14:25:36.609Z,99769.44
2023-04-21T14:28:08.389Z,99764.50
2023-04-21T14:30:39.199Z,99763.21
2023-04-21T14:33:09.992Z,99756.95
2023-04-21T14:35:40.997Z,99757.27
2023-04-21T14:38:11.492Z,99749.92
2023-04-21T14:40:42.047Z,99744.83
2023-04-21T14:43:12.572Z,99744.23
2023-04-21T14:45:43.593Z,99741.72
2023-04-21T14:48:14.902Z,99731.71
2023-04-21T14:50:45.683Z,99728.04
2023-04-21T14:53:16.255Z,99718.84
2023-04-21T14:55:46.703Z,99721.34
2023-04-21T14:58:17.131Z,99712.79
2023-04-21T15:00:47.480Z,99705.23
2023-04-21T15:03:18.325Z,99697.88
2023-04-21T15:05:49.083Z,99703.25
2023-04-21T15:08:18.291Z,99700.40
2023-04-21T15:10:49.282Z,99703.52
2023-04-21T15:13:20.003Z,99706.67
2023-04-21T15:15:51.636Z,99698.67
2023-04-21T15:18:22.052Z,99699.20
2023-04-21T15:20:53.084Z,99692.77
2023-04-21T15:23:23.562Z,99689.14
2023-04-21T15:25:53.926Z,99685.33
2023-04-21T15:28:24.590Z,99686.52
2023-04-21T15:30:53.785Z,99684.14
2023-04-21T15:33:24.182Z,99680.73
2023-04-21T15:35:54.614Z,99679.42
2023-04-21T15:38:25.313Z,99680.52
2023-04-21T15:43:29.985Z,99680.38
2023-04-21T15:46:00.603Z,99679.34
2023-04-21T15:48:29.655Z,99677.36
2023-04-21T15:51:00.396Z,99681.04
2023-04-21T15:53:31.040Z,99682.52
2023-04-21T15:56:01.429Z,99683.09
2023-04-21T15:58:31.908Z,99680.07
2023-04-21T16:01:03.227Z,99682.22
2023-04-21T16:03:34.110Z,99684.29
2023-04-21T16:06:05.929Z,99683.33
2023-04-21T16:08:36.621Z,99678.91
2023-04-21T16:11:07.751Z,99686.41
2023-04-21T16:13:36.708Z,99680.91
2023-04-21T16:16:08.825Z,99684.68
2023-04-21T16:18:39.701Z,99684.58
2023-04-21T16:21:11.646Z,99691.02
2023-04-21T16:23:42.548Z,99682.87
2023-04-21T16:26:16.175Z,99675.58
2023-04-21T16:28:46.752Z,99676.08
2023-04-21T16:31:17.319Z,99676.75
2023-04-21T16:33:47.890Z,99674.61
2023-04-21T16:36:19.088Z,99679.78
2023-04-21T16:38:49.554Z,99678.94
2023-04-21T16:41:21.181Z,99684.96
2023-04-21T16:43:51.887Z,99684.97
2023-04-21T16:46:22.534Z,99687.79
2023-04-21T16:48:53.428Z,99690.98
2023-04-21T16:51:26.113Z,99698.30
2023-04-21T16:53:56.708Z,99729.77
2023-04-21T16:56:27.236Z,99770.10
2023-04-21T16:58:57.684Z,99779.15
2023-04-21T17:01:28.179Z,99774.05
2023-04-21T17:03:58.930Z,99772.90
2023-04-21T17:06:29.839Z,99771.08
2023-04-21T17:09:01.197Z,99765.00
2023-04-21T17:11:31.289Z,99766.57
2023-04-21T17:14:05.140Z,99759.91
2023-04-21T17:16:39.140Z,99747.38
2023-04-21T17:19:09.704Z,99735.75
2023-04-21T17:21:40.177Z,99725.86
2023-04-21T17:24:13.248Z,99720.05
2023-04-21T17:26:43.961Z,99721.15
2023-04-21T17:29:16.733Z,99725.35
2023-04-21T17:31:47.384Z,99732.58
2023-04-21T17:34:17.921Z,99730.38
2023-04-21T17:36:48.704Z,99729.10
2023-04-21T17:39:19.126Z,99726.39
2023-04-21T17:41:49.827Z,99723.30
2023-04-21T17:44:20.824Z,99721.14
2023-04-21T17:46:52.448Z,99711.69
2023-04-21T17:49:24.864Z,99710.55
2023-04-21T17:51:55.639Z,99708.41
2023-04-21T17:54:28.598Z,99710.85
2023-04-21T17:56:59.490Z,99712.67
2023-04-21T17:59:30.067Z,99712.39
2023-04-21T18:02:01.124Z,99713.99
2023-04-21T18:04:30.742Z,99715.10
2023-04-21T18:07:11.975Z,99716.79
2023-04-21T18:09:43.458Z,99716.02
2023-04-21T18:12:12.560Z,99714.25
2023-04-21T18:14:43.603Z,99712.71
2023-04-21T18:17:16.011Z,99713.55
2023-04-21T18:19:48.494Z,99716.68
2023-04-21T18:22:19.323Z,99715.50
2023-04-21T18:24:50.528Z,99712.91
2023-04-21T18:27:21.278Z,99710.54
2023-04-21T18:29:52.378Z,99703.77
2023-04-21T18:32:21.739Z,99696.61
2023-04-21T18:34:52.541Z,99693.43
2023-04-21T18:37:23.329Z,99694.08
2023-04-21T18:39:54.427Z,99696.42
2023-04-21T18:42:28.211Z,99692.66
2023-04-21T18:44:59.609Z,99694.91
2023-04-21T18:47:30.441Z,99693.39
2023-04-21T18:50:01.445Z,99693.95
2023-04-21T18:52:32.179Z,99703.02
2023-04-21T18:55:06.910Z,99702.80
2023-04-21T18:57:37.533Z,99706.66
2023-04-21T19:00:11.015Z,99711.69
2023-04-21T19:02:42.049Z,99740.64
2023-04-21T19:05:11.671Z,99773.24
2023-04-21T19:07:43.068Z,99767.73
2023-04-21T19:10:12.314Z,99774.31
2023-04-21T19:12:46.689Z,99767.36
2023-04-21T19:15:20.147Z,99767.48
2023-04-21T19:17:50.840Z,99769.67
2023-04-21T19:20:32.450Z,99768.72
2023-04-21T19:23:03.825Z,99758.52
2023-04-21T19:25:34.809Z,99756.76
2023-04-21T19:28:06.540Z,99766.38
2023-04-21T19:30:37.174Z,99764.25
2023-04-21T19:33:08.023Z,99751.75
2023-04-21T19:35:38.770Z,99744.61
2023-04-21T19:38:10.136Z,99754.04
2023-04-21T19:40:44.363Z,99757.67
2023-04-21T19:43:22.210Z,99754.61
2023-04-21T19:50:18.668Z,99752.14
2023-04-21T19:52:49.637Z,99756.96
2023-04-21T19:55:20.160Z,99761.80
2023-04-21T19:57:53.682Z,99761.42
2023-04-21T20:00:27.471Z,99769.13
2023-04-21T20:02:58.452Z,99772.50
2023-04-21T20:05:38.899Z,99775.07
2023-04-21T20:08:16.919Z,99775.52
2023-04-21T20:10:53.981Z,99777.23
2023-04-21T20:13:27.138Z,99778.30
2023-04-21T20:16:01.033Z,99785.07
2023-04-21T20:18:36.671Z,99784.13
2023-04-21T20:21:08.775Z,99779.53
2023-04-21T20:23:41.166Z,99778.76
2023-04-21T20:26:15.581Z,99778.55
2023-04-21T20:28:56.013Z,99776.84
2023-04-21T20:31:41.489Z,99777.85
2023-04-21T20:34:22.542Z,99784.05
2023-04-21T20:36:56.109Z,99775.41
2023-04-21T20:39:48.358Z,99773.80
2023-04-21T20:42:45.132Z,99775.76
2023-04-21T20:45:18.603Z,99774.02
2023-04-21T20:47:49.304Z,99773.07
2023-04-21T20:50:23.531Z,99772.98
2023-04-21T20:52:54.253Z,99767.85
2023-04-21T20:55:25.034Z,99765.88
2023-04-21T20:58:06.059Z,99763.42
2023-04-21T21:00:46.812Z,99767.09
2023-04-21T21:03:20.638Z,99774.27
2023-04-21T21:05:51.801Z,99776.88
2023-04-21T21:08:22.439Z,99779.56
2023-04-21T21:10:55.578Z,99780.85
2023-04-21T21:13:26.178Z,99776.83
2023-04-21T21:16:05.887Z,99776.96
2023-04-21T21:18:39.199Z,99776.70
2023-04-21T21:21:09.667Z,99778.84
2023-04-21T21:23:56.987Z,99788.05
2023-04-21T21:26:30.481Z,99787.80
2023-04-21T21:29:04.250Z,99790.21
2023-04-21T21:31:44.940Z,99792.63
2023-04-21T21:34:15.841Z,99789.95
2023-04-21T21:36:46.625Z,99787.61
2023-04-21T21:39:20.634Z,99783.57
2023-04-21T21:42:00.293Z,99779.52
2023-04-21T21:44:30.926Z,99778.79
2023-04-21T21:47:02.118Z,99782.36
2023-04-21T21:49:35.084Z,99784.05
2023-04-21T21:52:08.053Z,99782.94
2023-04-21T21:54:38.880Z,99781.48
2023-04-21T21:57:11.876Z,99791.16
2023-04-21T21:59:42.521Z,99790.78
2023-04-21T22:02:13.331Z,99792.56
2023-04-21T22:04:44.136Z,99790.88
2023-04-21T22:07:17.817Z,99791.03
2023-04-21T22:09:59.709Z,99783.45
2023-04-21T22:12:35.021Z,99783.67
2023-04-21T22:15:17.497Z,99791.16
2023-04-21T22:17:48.300Z,99785.52
2023-04-21T22:20:19.331Z,99786.50
2023-04-21T22:22:52.536Z,99790.54
2023-04-21T22:25:27.091Z,99790.29
2023-04-21T22:27:58.397Z,99794.36
2023-04-21T22:30:28.918Z,99794.98
2023-04-21T22:33:02.150Z,99794.19
2023-04-21T22:35:32.571Z,99796.70
2023-04-21T22:38:03.235Z,99794.67
2023-04-21T22:40:33.739Z,99797.03
2023-04-21T22:43:05.822Z,99792.52
2023-04-21T22:45:36.941Z,99793.15
2023-04-21T22:48:19.222Z,99798.05
2023-04-21T22:50:48.397Z,99798.34
2023-04-21T22:53:18.803Z,99797.77
2023-04-21T22:55:49.200Z,99798.25
2023-04-21T22:58:19.927Z,99799.48
2023-04-21T23:00:52.898Z,99801.80
2023-04-21T23:03:26.667Z,99801.84
2023-04-21T23:05:59.780Z,99801.30
2023-04-21T23:08:40.499Z,99801.79
2023-04-21T23:11:15.654Z,99799.42
2023-04-21T23:13:49.057Z,99792.08
2023-04-21T23:16:28.267Z,99786.75
2023-04-21T23:19:10.850Z,99781.39
2023-04-21T23:21:43.734Z,99780.00
2023-04-21T23:24:14.491Z,99779.22
2023-04-21T23:26:56.325Z,99772.80
2023-04-21T23:29:29.355Z,99772.87
2023-04-21T23:32:02.130Z,99773.67
2023-04-21T23:34:32.788Z,99774.27
2023-04-21T23:37:05.917Z,99769.86
2023-04-21T23:39:36.692Z,99772.00
2023-04-21T23:42:08.075Z,99773.47
2023-04-21T23:44:41.518Z,99778.77
2023-04-21T23:47:14.321Z,99776.55
2023-04-21T23:49:45.457Z,99777.86
2023-04-21T23:52:16.011Z,99777.92
2023-04-21T23:54:46.659Z,99771.66
2023-04-21T23:57:20.393Z,99770.90
